• Join FlightAware (Why Join?)
  • Login
  • US Flag 
03:24AM EDT


 

Airport Tracker/Info


-or-


 

Live Flight TrackerFlight Track Log ✈ SWA2005 ✈ 24-Apr-2013 ✈ KSTL - KDEN

Flight Track Log - Related Links

Times and Time Zones

All times are in EDT time to prevent confusion due to time zone crossing. See the SWA2005 flight status page for this flight to view local times or setup timezone preferences in your user account.

Time Position Orientation Groundspeed Altitude Reporting Facility
EDT Latitude Longitude Course Direction KTS MPH feet Rate Location/Type
07:07AM 38.7531 -90.3300 301° West 161 185 1,600  Level FAA TRACON SMA TRACON (SMA)
07:07AM 38.7625 -90.3500 301° West 167 192 2,300 1,980 Climbing FAA TRACON SMA TRACON (SMA)
07:08AM 38.7711 -90.3692 300° West 192 221 2,900 2,400 Climbing FAA TRACON SMA TRACON (SMA)
07:08AM 38.7783 -90.3906 293° West 212 244 3,900 2,880 Climbing FAA TRACON SMA TRACON (SMA)
07:08AM 38.7883 -90.4175 295° West 218 251 4,900 2,820 Climbing FAA TRACON SMA TRACON (SMA)
07:09AM 38.7953 -90.4417 290° West 230 265 5,800 3,180 Climbing FAA TRACON SMA TRACON (SMA)
07:09AM 38.8050 -90.4714 293° West 235 270 7,000 3,120 Climbing FAA TRACON SMA TRACON (SMA)
07:09AM 38.8114 -90.4964 288° West 238 274 7,900 2,400 Climbing FAA TRACON SMA TRACON (SMA)
07:10AM 38.8181 -90.5225 288° West 246 283 8,600 2,520 Climbing FAA TRACON SMA TRACON (SMA)
07:10AM 38.8264 -90.5567 287° West 259 298 9,600 3,000 Climbing FAA TRACON SMA TRACON (SMA)
07:10AM 38.8322 -90.5844 285° West 264 304 10,600 1,800 Climbing FAA TRACON SMA TRACON (SMA)
07:11AM 38.8417 -90.6197 289° West 271 312 10,900 1,380 Climbing FAA TRACON SMA TRACON (SMA)
07:11AM 38.8497 -90.6506 289° West 292 336 11,600 3,060 Climbing FAA TRACON SMA TRACON (SMA)
07:11AM 38.8578 -90.6819 288° West 300 345 12,800 3,840 Climbing FAA TRACON SMA TRACON (SMA)
07:12AM 38.8653 -90.7119 288° West 292 336 14,000 3,300 Climbing FAA TRACON SMA TRACON (SMA)
07:12AM 38.8736 -90.7408 290° West 282 325 15,000 2,820 Climbing FAA TRACON SMA TRACON (SMA)
07:12AM 38.8833 -90.7764 289° West 277 319 15,900 2,400 Climbing FAA TRACON SMA TRACON (SMA)
07:13AM 38.8897 -90.8064 285° West 281 323 16,600 1,860 Climbing FAA TRACON SMA TRACON (SMA)
07:13AM 38.9000 -90.8442 289° West 288 331 17,200 1,620 Climbing FAA TRACON SMA TRACON (SMA)
07:13AM 38.9075 -90.8758 287° West 298 343 17,700 1,680 Climbing FAA TRACON SMA TRACON (SMA)
07:14AM 38.9158 -90.9075 289° West 304 350 18,300 1,800 Climbing FAA TRACON SMA TRACON (SMA)
07:14AM 38.9247 -90.9397 290° West 309 356 18,900 2,040 Climbing FAA TRACON SMA TRACON (SMA)
07:14AM 38.9344 -90.9808 287° West 314 361 19,700 2,040 Climbing FAA TRACON SMA TRACON (SMA)
07:15AM 38.9433 -91.0133 289° West 314 361 20,300 2,100 Climbing FAA TRACON SMA TRACON (SMA)
07:15AM 38.9542 -91.0544 289° West 316 364 21,100 2,100 Climbing FAA TRACON SMA TRACON (SMA)
07:15AM 38.9642 -91.0872 291° West 319 367 21,700 1,800 Climbing FAA TRACON SMA TRACON (SMA)
07:16AM 38.9689 -91.1219 280° West 319 367 22,300 1,800 Climbing FAA TRACON SMA TRACON (SMA)
07:16AM 38.9753 -91.1550 284° West 313 360 22,900 1,860 Climbing FAA TRACON SMA TRACON (SMA)
07:16AM 38.9836 -91.1967 284° West 312 359 23,600 1,800 Climbing FAA TRACON SMA TRACON (SMA)
07:17AM 38.9872 -91.2314 278° West 315 362 24,100 1,200 Climbing FAA TRACON SMA TRACON (SMA)
07:17AM 38.9928 -91.2656 282° West 318 366 24,400 720 Climbing FAA TRACON SMA TRACON (SMA)
07:17AM 39.0011 -91.3106 283° West 332 382 24,600 720 Climbing FAA TRACON SMA TRACON (SMA)
07:18AM 39.0056 -91.3478 279° West 342 394 24,900 1,020 Climbing FAA TRACON SMA TRACON (SMA)
07:18AM 39.0161 -91.3942 286° West 351 404 25,300 840 Climbing FAA TRACON SMA TRACON (SMA)
07:18AM 39.0206 -91.4339 278° West 359 413 25,500 420 Climbing FAA TRACON SMA TRACON (SMA)
07:19AM 39.0264 -91.4742 281° West 371 427 25,600 420 Climbing FAA TRACON SMA TRACON (SMA)
07:19AM 39.0350 -91.5144 285° West 379 436 25,800 1,320 Climbing FAA TRACON SMA TRACON (SMA)
07:19AM 39.0406 -91.5567 280° West 388 447 26,500 2,700 Climbing FAA TRACON SMA TRACON (SMA)
07:20AM 39.0564 -91.7311 277° West 370 426 29,500 2,040 Climbing Kansas City Center
07:21AM 39.0731 -91.8483 280° West 341 392 30,700 900 Climbing Kansas City Center
07:22AM 39.0914 -91.9739 281° West 351 404 31,400 900 Climbing Kansas City Center
07:23AM 39.1108 -92.1006 281° West 357 411 32,600 960 Climbing Kansas City Center
07:24AM 39.1214 -92.2275 276° West 358 412 33,400 900 Climbing Kansas City Center
07:25AM 39.1336 -92.3836 276° West 362 417 34,500 1,020 Climbing Kansas City Center
07:26AM 39.1431 -92.5156 275° West 366 421 35,500 720 Climbing Kansas City Center
07:27AM 39.1528 -92.6439 276° West 364 419 36,000 240 Climbing Kansas City Center
07:28AM 39.1600 -92.7497 275° West 361 415 36,000  Level Kansas City Center
07:30AM 39.1700 -92.8814 276° West 366 421 36,000  Level Kansas City Center
07:31AM 39.1800 -93.0381 275° West 367 422 36,000  Level Kansas City Center
07:31AM 39.1894 -93.1714 275° West 370 426 36,000  Level Kansas City Center
07:33AM 39.1981 -93.3053 275° West 374 430 36,000  Level Kansas City Center
07:34AM 39.2069 -93.4444 275° West 378 435 36,000  Level Kansas City Center
07:35AM 39.2169 -93.5761 276° West 384 442 36,000  Level Kansas City Center
07:36AM 39.2253 -93.7292 274° West 382 440 36,000  Level Kansas City Center
07:37AM 39.2339 -93.8600 275° West 382 440 36,000  Level Kansas City Center
07:38AM 39.2403 -93.9889 274° West 376 433 36,000  Level Kansas City Center
07:39AM 39.2367 -94.1392 268° West 375 432 36,000  Level Kansas City Center
07:40AM 39.2344 -94.2636 269° West 367 422 36,000  Level Kansas City Center
07:41AM 39.2325 -94.3892 269° West 365 420 36,000  Level Kansas City Center
07:42AM 39.2300 -94.5336 269° West 361 415 36,000  Level Kansas City Center
07:43AM 39.2275 -94.6558 269° West 357 411 36,000  Level Kansas City Center
07:44AM 39.2231 -94.7778 267° West 355 409 36,000  Level Kansas City Center
07:45AM 39.2200 -94.9178 268° West 351 404 36,000  Level Kansas City Center
07:46AM 39.2169 -95.0389 268° West 353 406 36,000  Level Kansas City Center
07:47AM 39.2131 -95.1689 268° West 351 404 36,000  Level Kansas City Center
07:48AM 39.2100 -95.3047 268° West 352 405 36,000  Level Kansas City Center
07:49AM 39.2067 -95.4292 268° West 350 403 36,000  Level Kansas City Center
07:50AM 39.2033 -95.5494 268° West 351 404 36,000  Level Kansas City Center
07:51AM 39.2000 -95.6711 268° West 354 407 36,000  Level Kansas City Center
07:52AM 39.1944 -95.8122 267° West 354 407 36,000  Level Kansas City Center
07:53AM 39.1900 -95.9347 267° West 356 410 36,000  Level Kansas City Center
07:54AM 39.1867 -96.0556 268° West 353 406 36,000  Level Kansas City Center
07:55AM 39.1811 -96.1961 267° West 353 406 36,000  Level Kansas City Center
07:56AM 39.1772 -96.3172 268° West 353 406 36,000  Level Kansas City Center
07:57AM 39.1728 -96.4403 267° West 357 411 36,000  Level Kansas City Center
07:58AM 39.1656 -96.5797 266° West 351 404 36,000  Level Kansas City Center
07:59AM 39.1611 -96.7014 267° West 353 406 36,000  Level Kansas City Center
08:00AM 39.1564 -96.8425 268° West 354 407 36,000  Level Kansas City Center
08:01AM 39.1506 -96.9628 266° West 352 405 36,000  Level Kansas City Center
08:02AM 39.1464 -97.0833 267° West 352 405 36,000  Level Kansas City Center
08:03AM 39.1417 -97.2244 268° West 352 405 36,000  Level Kansas City Center
08:04AM 39.1364 -97.3450 267° West 352 405 36,000  Level Kansas City Center
08:05AM 39.1311 -97.4653 267° West 352 405 36,000  Level Kansas City Center
08:06AM 39.1242 -97.6053 266° West 351 404 36,000  Level Kansas City Center
08:07AM 39.1189 -97.7261 267° West 352 405 36,000  Level Kansas City Center
08:08AM 39.1128 -97.8456 266° West 350 403 36,000  Level Kansas City Center
08:09AM 39.1053 -97.9800 266° West 355 409 36,000  Level Kansas City Center
08:10AM 39.0983 -98.1036 266° West 351 404 36,000  Level Kansas City Center
08:11AM 39.0928 -98.2244 267° West 346 398 36,000  Level Kansas City Center
08:12AM 39.0864 -98.3486 266° West 346 398 36,000  Level Kansas City Center
08:13AM 39.0792 -98.4983 266° West 351 404 36,000  Level Kansas City Center
08:14AM 39.0711 -98.6244 265° West 354 407 36,000  Level Kansas City Center
08:15AM 39.0639 -98.7506 266° West 356 410 36,000  Level Kansas City Center
08:16AM 39.0564 -98.8889 266° West 353 406 36,000  Level Denver Center
08:17AM 39.0489 -99.0125 266° West 355 409 36,000  Level Denver Center
08:18AM 39.0411 -99.1508 266° West 349 402 36,000  Level Denver Center
08:19AM 39.0336 -99.2683 265° West 346 398 36,000  Level Denver Center
08:21AM 39.0167 -99.4162 262° West  Level FlightAware Approximate
08:21AM 39.0200 -99.4919 262° West 341 392 36,000  Level Kansas City Center
08:22AM 39.0100 -99.6356 265° West 344 396 36,000  Level Denver Center
08:23AM 39.0031 -99.7500 266° West 339 390 36,000  Level Denver Center
08:24AM 38.9933 -99.8817 265° West 334 384 36,000  Level Denver Center
08:25AM 38.9861 -99.9956 265° West 335 386 36,000  Level Denver Center
08:26AM 38.9778 -100.1211 265° West 338 389 36,000  Level Denver Center
08:27AM 38.9689 -100.2439 265° West 336 387 36,000  Level Denver Center
08:28AM 38.9608 -100.3558 265° West 332 382 36,000  Level Denver Center
08:30AM 38.9528 -100.4689 265° West 332 382 36,000  Level Denver Center
08:31AM 38.9433 -100.6014 265° West 334 384 36,000  Level Denver Center
08:32AM 38.9344 -100.7142 264° West 335 386 36,000  Level Denver Center
08:33AM 38.9258 -100.8303 265° West 337 388 36,000  Level Denver Center
08:34AM 38.9167 -100.9600 265° West 329 379 36,000  Level Denver Center
08:35AM 38.9078 -101.0711 264° West 327 376 36,000  Level Denver Center
08:36AM 38.8986 -101.1817 264° West 326 375 36,000  Level Denver Center
08:37AM 38.8889 -101.3108 265° West 325 374 36,000  Level Denver Center
08:38AM 38.8800 -101.4214 264° West 325 374 36,000  Level Denver Center
08:39AM 38.8853 -101.5478 273° West 319 367 36,000  Level Denver Center
08:40AM 38.8944 -101.6567 276° West 321 369 36,000  Level Denver Center
08:41AM 38.9039 -101.7639 276° West 316 364 36,000  Level Denver Center
08:42AM 38.9150 -101.8928 276° West 323 372 36,000  Level Denver Center
08:43AM 38.9233 -102.0014 276° West 321 369 36,000  Level Denver Center
08:44AM 38.9308 -102.1125 275° West 326 375 36,000  Level Denver Center
08:45AM 38.9600 -102.2356 287° West 322 371 36,000 -240 Level Denver Center
08:46AM 38.9897 -102.3386 290° West 323 372 35,600 -600 Descending Denver Center
08:47AM 39.0156 -102.4392 288° West 312 359 34,800 -1,020 Descending Denver Center
08:48AM 39.0453 -102.5536 289° West 300 345 33,600 -1,080 Descending Denver Center
08:49AM 39.0694 -102.6492 288° West 294 338 32,700 -1,020 Descending Denver Center
08:50AM 39.1011 -102.7622 290° West 300 345 31,600 -960 Descending Denver Center
08:51AM 39.1286 -102.8725 288° West 320 368 30,800 -960 Descending Denver Center
08:52AM 39.1567 -102.9850 288° West 326 375 29,700 -1,140 Descending Denver Center
08:53AM 39.1867 -103.0958 289° West 326 375 28,600 -1,080 Descending Denver Center
08:54AM 39.2147 -103.2075 288° West 325 374 27,600 -1,020 Descending Denver Center
08:55AM 39.2433 -103.3194 288° West 327 376 26,600 -1,020 Descending Denver Center
08:56AM 39.2708 -103.4325 287° West 329 379 25,600 -1,440 Descending Denver Center
08:57AM 39.2997 -103.5483 288° West 335 386 23,700 -2,100 Descending Denver Center
08:58AM 39.3278 -103.6592 288° West 325 374 21,400 -2,220 Descending Denver Center
08:59AM 39.3536 -103.7661 287° West 313 360 19,300 -2,040 Descending Denver Center
09:00AM 39.3806 -103.8744 288° West 312 359 17,300 -1,320 Descending Denver Center
09:01AM 39.4200 -103.9756 297° West 294 338 16,700 -1,080 Descending Denver Center
09:02AM 39.4658 -104.0522 308° West 269 310 15,200 -1,380 Descending Denver Center
09:03AM 39.5111 -104.1292 307° West 269 310 14,000 -960 Descending Denver Center
09:04AM 39.5717 -104.1925 321° Northwest 264 304 13,300 -720 Descending Denver Center
09:05AM 39.6361 -104.2267 338° Northwest 253 291 12,600 -1,080 Descending Denver Center
09:06AM 39.6939 -104.2586 337° Northwest 231 266 11,200 -840 Descending Denver Center
09:07AM 39.7517 -104.2917 336° Northwest 228 262 11,000 -420 Descending Denver Center
09:08AM 39.7981 -104.3406 321° Northwest 230 265 10,400 -720 Descending Denver Center
09:09AM 39.8319 -104.4131 301° West 217 250 9,400 -1,320 Descending Denver Center
09:10AM 39.8647 -104.4831 301° West 187 215 7,500 -1,320 Descending Denver Center
09:11AM 39.8833 -104.5333 296° West 146 168 6,900 -840 Descending Denver TRACON
09:12AM 39.8833 -104.5833 270° West 141 162 5,900 -780 Descending Denver TRACON
09:13AM 39.8772 -104.6358 261° West 138 159 5,300 -600 Descending Denver Center
09:15AM 39.8500 -104.6667 201° Southwest  Level FlightAware Approximate
09:22AM 39.8617 -104.6732 201° Southwest  Level Estimated
09:23AM 39.8617 -104.6732 201° Southwest  Level Estimated